createdAt,value
2019-05-28T00:00:13.431Z,80.56
2019-05-28T00:02:15.658Z,80.66
2019-05-28T00:04:18.022Z,80.95
2019-05-28T00:06:20.954Z,80.80
2019-05-28T00:08:23.191Z,80.59
2019-05-28T00:10:26.206Z,80.94
2019-05-28T00:12:28.625Z,80.85
2019-05-28T00:14:30.380Z,80.76
2019-05-28T00:16:33.681Z,80.34
2019-05-28T00:18:35.903Z,80.57
2019-05-28T00:20:37.994Z,80.18
2019-05-28T00:22:40.051Z,80.01
2019-05-28T00:24:42.538Z,79.97
2019-05-28T00:26:45.738Z,79.81
2019-05-28T00:28:48.095Z,80.40
2019-05-28T00:30:50.329Z,79.92
2019-05-28T00:32:52.811Z,79.73
2019-05-28T00:34:55.296Z,79.50
2019-05-28T00:36:57.512Z,79.34
2019-05-28T00:39:00.944Z,79.41
2019-05-28T00:41:03.490Z,79.62
2019-05-28T00:43:07.230Z,79.06
2019-05-28T00:45:10.299Z,79.33
2019-05-28T00:47:12.607Z,79.51
2019-05-28T00:49:14.832Z,79.32
2019-05-28T00:51:16.952Z,79.94
2019-05-28T00:53:18.973Z,80.55
2019-05-28T00:55:21.333Z,80.40
2019-05-28T00:57:24.309Z,80.02
2019-05-28T00:59:27.984Z,79.90
2019-05-28T01:01:30.374Z,79.77
2019-05-28T01:03:33.526Z,80.10
2019-05-28T01:05:35.809Z,80.25
2019-05-28T01:07:38.136Z,80.77
2019-05-28T01:09:40.502Z,81.40
2019-05-28T01:11:42.603Z,81.36
2019-05-28T01:13:44.792Z,81.31
2019-05-28T01:15:47.066Z,81.27
2019-05-28T01:17:49.427Z,81.23
2019-05-28T01:19:52.215Z,81.60
2019-05-28T01:21:54.714Z,81.05
2019-05-28T01:23:56.704Z,81.33
2019-05-28T01:25:59.118Z,81.25
2019-05-28T01:28:01.080Z,81.30
2019-05-28T01:30:03.652Z,81.26
2019-05-28T01:32:07.278Z,81.43
2019-05-28T01:34:09.204Z,82.01
2019-05-28T01:36:12.088Z,81.80
2019-05-28T01:38:14.250Z,82.21
2019-05-28T01:40:17.012Z,82.68
2019-05-28T01:42:19.247Z,82.63
2019-05-28T01:44:21.766Z,82.30
2019-05-28T01:46:25.640Z,82.64
2019-05-28T01:48:27.843Z,82.54
2019-05-28T01:50:30.015Z,83.10
2019-05-28T01:52:32.082Z,83.11
2019-05-28T01:54:34.107Z,83.25
2019-05-28T01:56:36.392Z,83.73
2019-05-28T01:58:38.308Z,83.73
2019-05-28T02:00:40.440Z,84.16
2019-05-28T02:02:42.800Z,84.04
2019-05-28T02:04:44.819Z,84.47
2019-05-28T02:06:46.898Z,84.07
2019-05-28T02:08:49.394Z,83.77
2019-05-28T02:10:51.826Z,83.67
2019-05-28T02:12:54.060Z,83.74
2019-05-28T02:14:56.374Z,83.51
2019-05-28T02:16:58.559Z,83.66
2019-05-28T02:19:00.884Z,83.74
2019-05-28T02:21:03.413Z,83.37
2019-05-28T02:23:05.242Z,83.61
2019-05-28T02:25:07.801Z,83.61
2019-05-28T02:27:10.244Z,83.36
2019-05-28T02:29:11.825Z,83.79
2019-05-28T02:31:26.930Z,83.32
2019-05-28T02:33:18.419Z,83.10
2019-05-28T02:35:22.462Z,83.25
2019-05-28T02:37:24.825Z,83.39
2019-05-28T02:39:27.174Z,83.28
2019-05-28T02:41:29.248Z,83.26
2019-05-28T02:43:31.699Z,83.92
2019-05-28T02:45:34.889Z,83.31
2019-05-28T02:47:37.114Z,83.56
2019-05-28T02:49:39.230Z,83.81
2019-05-28T02:51:41.893Z,83.41
2019-05-28T02:53:44.193Z,83.73
2019-05-28T02:55:47.030Z,83.28
2019-05-28T02:57:50.427Z,83.22
2019-05-28T02:59:53.699Z,83.03
2019-05-28T03:01:57.496Z,83.25
2019-05-28T03:04:02.470Z,82.83
2019-05-28T03:06:06.549Z,82.44
2019-05-28T03:08:11.019Z,82.70
2019-05-28T03:10:13.873Z,82.35
2019-05-28T03:12:15.886Z,82.05
2019-05-28T03:14:18.227Z,82.26
2019-05-28T03:16:22.993Z,82.14
2019-05-28T03:18:27.171Z,82.10
2019-05-28T03:20:30.739Z,81.98
2019-05-28T03:22:35.380Z,82.25
2019-05-28T03:24:41.032Z,81.70
2019-05-28T03:26:43.180Z,82.04
2019-05-28T03:28:45.730Z,81.83
2019-05-28T03:30:48.521Z,81.76
2019-05-28T03:32:50.807Z,81.95
2019-05-28T03:34:53.145Z,82.00
2019-05-28T03:36:55.434Z,81.71
2019-05-28T03:38:58.435Z,81.67
2019-05-28T03:41:01.711Z,81.61
2019-05-28T03:43:03.961Z,81.83
2019-05-28T03:45:06.730Z,81.51
2019-05-28T03:47:10.234Z,81.67
2019-05-28T03:49:12.612Z,82.76
2019-05-28T03:51:15.935Z,83.02
2019-05-28T03:53:17.928Z,83.14
2019-05-28T03:55:20.042Z,83.43
2019-05-28T03:57:22.181Z,83.75
2019-05-28T03:59:24.199Z,84.27
2019-05-28T04:01:28.136Z,86.23
2019-05-28T04:03:30.140Z,85.72
2019-05-28T04:05:32.993Z,85.67
2019-05-28T04:07:34.783Z,86.04
2019-05-28T04:09:36.927Z,85.70
2019-05-28T04:11:44.790Z,85.95
2019-05-28T04:13:43.206Z,86.71
2019-05-28T04:15:46.334Z,86.20
2019-05-28T04:17:49.067Z,86.20
2019-05-28T04:19:51.440Z,86.51
2019-05-28T04:21:54.626Z,87.44
2019-05-28T04:23:56.879Z,87.02
2019-05-28T04:25:58.930Z,88.22
2019-05-28T04:28:01.048Z,88.42
2019-05-28T04:30:03.988Z,87.93
2019-05-28T04:32:06.180Z,88.02
2019-05-28T04:34:08.205Z,88.07
2019-05-28T04:36:10.592Z,88.99
2019-05-28T04:38:13.780Z,88.57
2019-05-28T04:40:15.806Z,88.97
2019-05-28T04:42:18.297Z,89.39
2019-05-28T04:44:19.995Z,90.17
2019-05-28T04:46:22.373Z,90.45
2019-05-28T04:48:25.522Z,89.02
2019-05-28T04:50:27.542Z,88.95
2019-05-28T04:52:30.797Z,87.87
2019-05-28T04:54:33.247Z,84.74
2019-05-28T04:56:35.403Z,85.43
2019-05-28T04:58:37.563Z,88.75
2019-05-28T05:00:39.779Z,86.29
2019-05-28T05:02:57.747Z,87.51
2019-05-28T05:04:46.996Z,85.89
2019-05-28T05:06:49.182Z,87.10
2019-05-28T05:08:51.211Z,87.62
2019-05-28T05:10:54.244Z,87.26
2019-05-28T05:12:57.823Z,88.06
2019-05-28T05:14:59.728Z,89.70
2019-05-28T05:17:01.804Z,89.05
2019-05-28T05:19:04.193Z,87.27
2019-05-28T05:21:06.211Z,89.56
2019-05-28T05:23:08.629Z,88.75
2019-05-28T05:25:11.125Z,88.16
2019-05-28T05:27:13.152Z,88.94
2019-05-28T05:29:15.178Z,87.91
2019-05-28T05:31:17.419Z,88.51
2019-05-28T05:33:20.728Z,90.31
2019-05-28T05:35:23.080Z,89.56
2019-05-28T05:39:09.291Z,90.59
2019-05-28T05:41:11.143Z,91.34
2019-05-28T05:43:13.293Z,91.90
2019-05-28T05:45:15.667Z,91.05
2019-05-28T05:47:17.773Z,91.92
2019-05-28T05:49:19.985Z,92.09
2019-05-28T05:51:22.477Z,90.09
2019-05-28T05:53:24.208Z,89.92
2019-05-28T05:55:26.596Z,89.09
2019-05-28T05:57:28.881Z,89.34
2019-05-28T05:59:30.997Z,88.91
2019-05-28T06:01:33.219Z,89.34
2019-05-28T06:03:40.393Z,89.50
2019-05-28T06:05:39.532Z,89.76
2019-05-28T06:07:41.836Z,89.91
2019-05-28T06:09:44.009Z,90.90
2019-05-28T06:11:46.644Z,89.80
2019-05-28T06:13:48.349Z,89.20
2019-05-28T06:15:50.492Z,91.23
2019-05-28T06:17:52.595Z,90.48
2019-05-28T06:19:54.585Z,89.93
2019-05-28T06:21:57.195Z,89.61
2019-05-28T06:23:59.118Z,90.62
2019-05-28T06:26:01.300Z,90.98
2019-05-28T06:28:03.924Z,91.89
2019-05-28T06:30:07.903Z,89.61
2019-05-28T06:32:10.028Z,88.71
2019-05-28T06:34:12.526Z,90.34
2019-05-28T06:36:14.624Z,88.90
2019-05-28T06:38:16.693Z,89.26
2019-05-28T06:40:19.838Z,88.10
2019-05-28T06:42:23.031Z,87.73
2019-05-28T06:44:27.272Z,88.32
2019-05-28T06:46:30.061Z,87.13
2019-05-28T06:48:32.357Z,89.01
2019-05-28T06:50:34.575Z,88.33
2019-05-28T06:52:36.932Z,87.76
2019-05-28T06:54:39.443Z,87.69
2019-05-28T06:56:41.747Z,88.04
2019-05-28T06:58:44.033Z,88.54
2019-05-28T07:00:46.155Z,88.92
2019-05-28T07:02:48.468Z,88.29
2019-05-28T07:04:50.502Z,88.54
2019-05-28T07:06:52.744Z,86.33
2019-05-28T07:08:55.175Z,87.29
2019-05-28T07:10:58.460Z,88.71
2019-05-28T07:13:01.725Z,88.28
2019-05-28T07:15:04.374Z,86.73
2019-05-28T07:17:07.295Z,86.42
2019-05-28T07:19:23.381Z,86.79
2019-05-28T07:21:13.269Z,85.98
2019-05-28T07:23:15.552Z,85.91
2019-05-28T07:25:17.695Z,87.85
2019-05-28T07:27:19.810Z,85.72
2019-05-28T07:29:22.543Z,87.06
2019-05-28T07:31:24.601Z,85.48
2019-05-28T07:33:26.633Z,86.15
2019-05-28T07:35:44.828Z,85.18
2019-05-28T07:37:33.466Z,85.18
2019-05-28T07:39:35.509Z,85.64
2019-05-28T07:41:39.245Z,85.21
2019-05-28T07:43:41.311Z,85.40
2019-05-28T07:45:43.734Z,86.59
2019-05-28T07:47:47.042Z,84.50
2019-05-28T07:49:49.150Z,85.72
2019-05-28T07:51:51.244Z,87.95
2019-05-28T07:53:53.550Z,85.06
2019-05-28T07:55:55.643Z,84.52
2019-05-28T07:57:58.964Z,84.06
2019-05-28T08:00:05.374Z,85.44
2019-05-28T08:02:05.526Z,85.16
2019-05-28T08:04:07.583Z,84.89
2019-05-28T08:06:09.893Z,84.83
2019-05-28T08:08:16.046Z,85.90
2019-05-28T08:10:18.088Z,85.36
2019-05-28T08:12:20.379Z,86.46
2019-05-28T08:14:22.881Z,84.54
2019-05-28T08:16:25.081Z,84.72
2019-05-28T08:18:28.121Z,85.25
2019-05-28T08:20:30.275Z,83.69
2019-05-28T08:22:41.638Z,84.27
2019-05-28T08:24:36.742Z,84.15
2019-05-28T08:26:38.605Z,84.21
2019-05-28T08:28:40.646Z,84.50
2019-05-28T08:30:42.970Z,85.36
2019-05-28T08:32:45.191Z,84.75
2019-05-28T08:35:04.169Z,84.36
2019-05-28T08:37:05.349Z,83.77
2019-05-28T08:38:55.844Z,84.99
2019-05-28T08:40:57.880Z,84.16
2019-05-28T08:43:00.150Z,84.27
2019-05-28T08:45:02.320Z,84.11
2019-05-28T08:47:05.807Z,82.98
2019-05-28T08:49:09.532Z,82.92
2019-05-28T08:51:11.786Z,84.69
2019-05-28T08:53:13.729Z,83.73
2019-05-28T08:55:17.437Z,85.26
2019-05-28T08:57:20.053Z,86.08
2019-05-28T08:59:22.102Z,85.53
2019-05-28T09:01:24.525Z,83.22
2019-05-28T09:03:26.214Z,83.56
2019-05-28T09:05:28.176Z,84.09
2019-05-28T09:07:30.803Z,84.35
2019-05-28T09:09:32.965Z,86.16
2019-05-28T09:11:35.015Z,86.72
2019-05-28T09:13:37.505Z,86.82
2019-05-28T09:15:39.077Z,86.30
2019-05-28T09:17:42.128Z,84.11
2019-05-28T09:19:44.304Z,84.84
2019-05-28T09:21:46.350Z,84.33
2019-05-28T09:23:48.693Z,86.15
2019-05-28T09:25:50.779Z,87.10
2019-05-28T09:27:52.946Z,84.10
2019-05-28T09:29:55.537Z,82.35
2019-05-28T09:31:58.205Z,85.33
2019-05-28T09:34:00.858Z,83.50
2019-05-28T09:36:08.507Z,81.30
2019-05-28T09:38:08.711Z,80.83
2019-05-28T09:40:11.322Z,83.56
2019-05-28T09:42:13.379Z,82.14
2019-05-28T09:44:15.603Z,81.52
2019-05-28T09:46:18.778Z,78.87
2019-05-28T09:48:20.854Z,78.37
2019-05-28T09:50:30.551Z,78.37
2019-05-28T09:52:27.178Z,78.29
2019-05-28T09:54:29.265Z,79.89
2019-05-28T09:56:32.826Z,78.90
2019-05-28T09:58:35.004Z,78.30
2019-05-28T10:00:38.054Z,78.77
2019-05-28T10:02:40.417Z,79.21
2019-05-28T10:04:49.088Z,79.66
2019-05-28T10:06:46.550Z,76.51
2019-05-28T10:08:48.941Z,78.28
2019-05-28T10:10:51.162Z,77.31
2019-05-28T10:12:53.762Z,76.90
2019-05-28T10:14:55.614Z,78.47
2019-05-28T10:16:57.861Z,80.51
2019-05-28T10:18:59.862Z,76.41
2019-05-28T10:21:17.100Z,76.39
2019-05-28T10:23:06.145Z,75.73
2019-05-28T10:25:09.466Z,77.37
2019-05-28T10:27:11.810Z,77.75
2019-05-28T10:29:13.775Z,78.43
2019-05-28T10:31:16.084Z,77.83
2019-05-28T10:33:18.265Z,78.98
2019-05-28T10:35:20.822Z,77.70
2019-05-28T10:37:22.886Z,75.90
2019-05-28T10:39:25.420Z,74.91
2019-05-28T10:41:27.489Z,76.76
2019-05-28T10:43:29.823Z,72.39
2019-05-28T10:45:32.307Z,72.55
2019-05-28T10:47:34.511Z,71.92
2019-05-28T10:49:36.744Z,73.74
2019-05-28T10:51:38.905Z,71.98
2019-05-28T10:53:40.991Z,72.00
2019-05-28T10:55:43.080Z,72.00
2019-05-28T10:57:45.611Z,70.66
2019-05-28T10:59:47.302Z,70.58
2019-05-28T11:01:49.657Z,75.38
2019-05-28T11:03:51.883Z,68.95
2019-05-28T11:05:53.937Z,67.85
2019-05-28T11:07:56.024Z,66.62
2019-05-28T11:09:58.283Z,69.08
2019-05-28T11:12:00.343Z,66.21
2019-05-28T11:14:02.435Z,68.79
2019-05-28T11:16:04.988Z,68.82
2019-05-28T11:18:06.901Z,67.15
2019-05-28T11:20:10.542Z,67.49
2019-05-28T11:22:13.325Z,66.72
2019-05-28T11:24:15.417Z,67.41
2019-05-28T11:26:17.950Z,69.19
2019-05-28T11:28:20.083Z,66.29
2019-05-28T11:30:22.840Z,69.53
2019-05-28T11:32:25.062Z,69.20
2019-05-28T11:34:27.641Z,69.39
2019-05-28T11:36:29.734Z,69.97
2019-05-28T11:38:31.746Z,70.63
2019-05-28T11:40:33.937Z,70.74
2019-05-28T11:42:35.968Z,72.58
2019-05-28T11:44:37.998Z,71.62
2019-05-28T11:46:40.334Z,68.83
2019-05-28T11:48:43.536Z,69.64
2019-05-28T11:50:45.558Z,70.11
2019-05-28T11:52:48.552Z,68.87
2019-05-28T11:54:51.034Z,67.88
2019-05-28T11:56:52.618Z,69.69
2019-05-28T11:58:55.636Z,69.39
2019-05-28T12:00:57.833Z,68.88
2019-05-28T12:02:59.862Z,64.13
2019-05-28T12:05:02.272Z,65.12
2019-05-28T12:07:06.230Z,65.31
2019-05-28T12:09:08.316Z,65.64
2019-05-28T12:11:10.695Z,64.72
2019-05-28T12:13:13.443Z,60.49
2019-05-28T12:15:20.022Z,63.45
2019-05-28T12:17:40.775Z,59.56
2019-05-28T12:19:26.421Z,62.18
2019-05-28T12:21:28.696Z,60.27
2019-05-28T12:23:31.149Z,61.50
2019-05-28T12:25:33.299Z,59.31
2019-05-28T12:27:36.416Z,58.46
2019-05-28T12:29:51.428Z,59.48
2019-05-28T12:31:43.985Z,61.35
2019-05-28T12:33:46.047Z,60.48
2019-05-28T12:35:48.184Z,59.02
2019-05-28T12:37:51.040Z,59.13
2019-05-28T12:39:53.369Z,62.29
2019-05-28T12:42:03.201Z,61.50
2019-05-28T12:43:59.573Z,61.73
2019-05-28T12:46:01.864Z,59.59
2019-05-28T12:48:11.900Z,58.42
2019-05-28T12:50:18.922Z,59.87
2019-05-28T12:52:13.276Z,61.63
2019-05-28T12:54:16.731Z,59.84
2019-05-28T12:56:18.950Z,58.15
2019-05-28T12:58:21.069Z,60.67
2019-05-28T13:00:25.794Z,61.24
2019-05-28T13:02:27.936Z,61.24
2019-05-28T13:04:30.057Z,60.30
2019-05-28T13:06:32.274Z,61.08
2019-05-28T13:08:34.355Z,60.63
2019-05-28T13:10:36.513Z,60.55
2019-05-28T13:12:38.977Z,60.39
2019-05-28T13:14:41.422Z,59.36
2019-05-28T13:16:43.317Z,59.30
2019-05-28T13:18:47.319Z,58.76
2019-05-28T13:20:49.392Z,57.79
2019-05-28T13:22:51.497Z,59.22
2019-05-28T13:24:53.804Z,58.63
2019-05-28T13:26:55.866Z,59.93
2019-05-28T13:28:58.029Z,60.28
2019-05-28T13:31:00.411Z,57.59
2019-05-28T13:33:02.377Z,57.72
2019-05-28T13:35:05.662Z,59.46
2019-05-28T13:37:08.157Z,60.22
2019-05-28T13:39:10.479Z,61.05
2019-05-28T13:41:12.736Z,58.79
2019-05-28T13:43:16.327Z,59.36
2019-05-28T13:45:19.704Z,57.95
2019-05-28T13:47:32.927Z,58.03
2019-05-28T13:49:26.332Z,57.77
2019-05-28T13:51:28.854Z,57.26
2019-05-28T13:53:30.986Z,58.22
2019-05-28T13:55:33.655Z,58.53
2019-05-28T13:57:39.212Z,58.68
2019-05-28T13:59:39.922Z,57.75
2019-05-28T14:01:42.303Z,56.81
2019-05-28T14:03:44.517Z,57.79
2019-05-28T14:05:48.738Z,59.17
2019-05-28T14:07:51.146Z,59.50
2019-05-28T14:09:54.022Z,57.84
2019-05-28T14:11:56.052Z,58.45
2019-05-28T14:14:04.054Z,58.28
2019-05-28T14:16:06.116Z,58.68
2019-05-28T14:18:08.281Z,59.58
2019-05-28T14:20:11.857Z,59.52
2019-05-28T14:22:14.109Z,60.32
2019-05-28T14:24:16.069Z,58.48
2019-05-28T14:26:19.009Z,58.71
2019-05-28T14:28:21.223Z,59.60
2019-05-28T14:30:23.831Z,59.82
2019-05-28T14:32:26.242Z,59.08
2019-05-28T14:34:28.430Z,58.00
2019-05-28T14:36:30.523Z,58.44
2019-05-28T14:38:33.569Z,59.30
2019-05-28T14:40:35.814Z,60.44
2019-05-28T14:42:38.020Z,60.02
2019-05-28T14:44:43.256Z,59.09
2019-05-28T14:46:45.250Z,59.49
2019-05-28T14:48:47.383Z,58.56
2019-05-28T14:50:49.632Z,57.36
2019-05-28T14:52:51.780Z,59.25
2019-05-28T14:54:53.853Z,58.42
2019-05-28T14:56:56.891Z,57.60
2019-05-28T14:58:59.208Z,57.14
2019-05-28T15:01:01.602Z,57.90
2019-05-28T15:03:03.771Z,57.83
2019-05-28T15:05:06.156Z,56.90
2019-05-28T15:07:07.947Z,56.25
2019-05-28T15:09:20.993Z,57.05
2019-05-28T15:11:14.672Z,57.36
2019-05-28T15:13:16.889Z,57.58
2019-05-28T15:15:34.475Z,59.46
2019-05-28T15:17:26.716Z,57.91
2019-05-28T15:19:28.244Z,60.02
2019-05-28T15:21:30.866Z,59.96
2019-05-28T15:23:32.888Z,61.11
2019-05-28T15:25:35.021Z,59.63
2019-05-28T15:27:37.248Z,59.31
2019-05-28T15:29:39.437Z,59.42
2019-05-28T15:31:41.488Z,58.46
2019-05-28T15:33:43.536Z,58.38
2019-05-28T15:35:47.253Z,57.57
2019-05-28T15:37:49.535Z,57.03
2019-05-28T15:39:51.807Z,57.46
2019-05-28T15:41:53.982Z,58.08
2019-05-28T15:43:56.569Z,59.06
2019-05-28T15:45:59.001Z,57.29
2019-05-28T15:48:01.050Z,57.44
2019-05-28T15:50:04.235Z,55.84
2019-05-28T15:52:07.973Z,55.44
2019-05-28T15:54:10.382Z,56.55
2019-05-28T15:56:12.508Z,57.85
2019-05-28T15:58:15.868Z,58.47
2019-05-28T16:00:20.971Z,59.37
2019-05-28T16:02:22.969Z,58.83
2019-05-28T16:04:25.654Z,58.11
2019-05-28T16:06:27.873Z,59.48
2019-05-28T16:08:30.011Z,59.42
2019-05-28T16:10:32.325Z,58.44
2019-05-28T16:12:34.737Z,58.52
2019-05-28T16:14:36.338Z,59.22
2019-05-28T16:16:38.407Z,58.98
2019-05-28T16:18:40.888Z,59.29
2019-05-28T16:20:42.962Z,59.40
2019-05-28T16:22:45.071Z,57.97
2019-05-28T16:24:47.118Z,58.26
2019-05-28T16:26:49.360Z,59.26
2019-05-28T16:28:51.548Z,59.55
2019-05-28T16:31:11.136Z,61.03
2019-05-28T16:32:57.712Z,60.42
2019-05-28T16:34:59.847Z,59.95
2019-05-28T16:37:02.086Z,59.87
2019-05-28T16:39:07.691Z,59.03
2019-05-28T16:41:11.694Z,59.94
2019-05-28T16:43:13.938Z,60.86
2019-05-28T16:45:16.898Z,61.22
2019-05-28T16:47:19.284Z,60.51
2019-05-28T16:49:21.139Z,60.34
2019-05-28T16:51:23.334Z,60.06
2019-05-28T16:53:25.765Z,60.28
2019-05-28T16:55:27.846Z,59.49
2019-05-28T16:57:29.921Z,60.64
2019-05-28T16:59:32.260Z,59.12
2019-05-28T17:01:34.396Z,58.45
2019-05-28T17:03:36.415Z,57.57
2019-05-28T17:05:38.499Z,58.27
2019-05-28T17:07:40.694Z,59.32
2019-05-28T17:09:42.753Z,59.76
2019-05-28T17:11:45.089Z,58.64
2019-05-28T17:13:49.388Z,58.79
2019-05-28T17:15:52.226Z,59.07
2019-05-28T17:17:54.602Z,59.88
2019-05-28T17:19:56.664Z,59.89
2019-05-28T17:21:59.039Z,59.84
2019-05-28T17:24:00.965Z,60.21
2019-05-28T17:26:03.667Z,59.53
2019-05-28T17:28:05.920Z,58.13
2019-05-28T17:30:18.883Z,58.90
2019-05-28T17:32:12.781Z,60.12
2019-05-28T17:34:15.062Z,60.14
2019-05-28T17:36:17.463Z,60.37
2019-05-28T17:38:19.523Z,60.42
2019-05-28T17:40:22.340Z,59.87
2019-05-28T17:42:24.777Z,59.84
2019-05-28T17:44:26.830Z,60.22
2019-05-28T17:46:29.107Z,60.10
2019-05-28T17:48:31.794Z,61.09
2019-05-28T17:50:34.055Z,59.85
2019-05-28T17:52:36.118Z,59.24
2019-05-28T17:54:38.405Z,60.07
2019-05-28T17:56:40.423Z,59.96
2019-05-28T17:58:42.634Z,58.84
2019-05-28T18:00:44.979Z,59.25
2019-05-28T18:02:48.555Z,58.95
2019-05-28T18:04:50.796Z,59.41
2019-05-28T18:06:53.002Z,60.55
2019-05-28T18:08:55.050Z,60.57
2019-05-28T18:11:04.645Z,60.86
2019-05-28T18:13:01.750Z,59.67
2019-05-28T18:15:04.889Z,59.90
2019-05-28T18:17:08.104Z,60.02
2019-05-28T18:19:10.400Z,60.65
2019-05-28T18:21:13.498Z,59.69
2019-05-28T18:23:15.578Z,60.52
2019-05-28T18:25:20.235Z,60.08
2019-05-28T18:27:21.893Z,59.21
2019-05-28T18:29:24.167Z,58.51
2019-05-28T18:31:27.604Z,58.60
2019-05-28T18:33:29.634Z,56.99
2019-05-28T18:35:31.677Z,57.45
2019-05-28T18:37:34.067Z,57.52
2019-05-28T18:39:36.158Z,57.65
2019-05-28T18:41:38.198Z,57.74
2019-05-28T18:43:40.577Z,57.07
2019-05-28T18:45:42.802Z,57.06
2019-05-28T18:47:44.970Z,56.61
2019-05-28T18:49:47.482Z,57.39
2019-05-28T18:51:49.688Z,58.81
2019-05-28T18:53:51.855Z,56.50
2019-05-28T18:55:54.274Z,56.81
2019-05-28T18:57:56.015Z,57.10
2019-05-28T18:59:58.363Z,56.96
2019-05-28T19:02:00.660Z,58.31
2019-05-28T19:04:02.637Z,58.88
2019-05-28T19:06:05.035Z,58.77
2019-05-28T19:08:07.800Z,59.22
2019-05-28T19:10:09.575Z,59.41
2019-05-28T19:12:11.796Z,60.27
2019-05-28T19:14:14.064Z,59.63
2019-05-28T19:16:16.558Z,59.72
2019-05-28T19:18:18.331Z,61.20
2019-05-28T19:20:20.553Z,60.24
2019-05-28T19:22:22.404Z,59.00
2019-05-28T19:24:24.795Z,58.62
2019-05-28T19:26:26.908Z,59.07
2019-05-28T19:28:30.068Z,59.56
2019-05-28T19:30:33.765Z,59.83
2019-05-28T19:32:35.992Z,60.99
2019-05-28T19:34:38.394Z,61.12
2019-05-28T19:36:40.546Z,61.17
2019-05-28T19:38:45.829Z,61.67
2019-05-28T19:40:47.628Z,61.55
2019-05-28T19:42:50.046Z,61.39
2019-05-28T19:44:52.462Z,62.09
2019-05-28T19:46:54.281Z,62.78
2019-05-28T19:48:56.583Z,62.51
2019-05-28T19:50:58.851Z,62.10
2019-05-28T19:53:00.906Z,61.74
2019-05-28T19:55:03.500Z,62.04
2019-05-28T19:57:07.325Z,61.62
2019-05-28T19:59:09.395Z,61.37
2019-05-28T20:01:11.558Z,61.56
2019-05-28T20:03:14.126Z,61.83
2019-05-28T20:05:16.086Z,61.62
2019-05-28T20:07:18.325Z,62.70
2019-05-28T20:09:20.586Z,63.12
2019-05-28T20:11:23.735Z,63.98
2019-05-28T20:13:26.032Z,64.83
2019-05-28T20:15:29.107Z,64.99
2019-05-28T20:17:31.422Z,65.17
2019-05-28T20:19:35.348Z,65.35
2019-05-28T20:21:38.089Z,65.96
2019-05-28T20:23:41.018Z,66.16
2019-05-28T20:25:47.508Z,66.63
2019-05-28T20:27:49.611Z,66.87
2019-05-28T20:29:51.943Z,66.78
2019-05-28T20:31:53.956Z,66.92
2019-05-28T20:33:56.602Z,67.19
2019-05-28T20:35:59.726Z,67.55
2019-05-28T20:38:05.779Z,67.43
2019-05-28T20:40:08.064Z,66.92
2019-05-28T20:42:26.183Z,67.18
2019-05-28T20:44:14.540Z,66.65
2019-05-28T20:46:16.753Z,66.93
2019-05-28T20:48:18.980Z,67.42
2019-05-28T20:50:21.475Z,67.04
2019-05-28T20:52:23.277Z,67.02
2019-05-28T20:54:25.395Z,66.90
2019-05-28T20:56:27.449Z,67.64
2019-05-28T20:58:39.964Z,67.43
2019-05-28T21:00:33.838Z,67.96
2019-05-28T21:02:36.242Z,67.44
2019-05-28T21:04:41.594Z,67.87
2019-05-28T21:06:43.203Z,66.79
2019-05-28T21:08:45.401Z,67.80
2019-05-28T21:10:48.192Z,66.85
2019-05-28T21:12:52.601Z,68.63
2019-05-28T21:14:54.899Z,66.67
2019-05-28T21:16:57.424Z,68.06
2019-05-28T21:18:59.463Z,67.03
2019-05-28T21:21:01.691Z,67.48
2019-05-28T21:23:04.517Z,69.07
2019-05-28T21:25:07.507Z,66.73
2019-05-28T21:27:09.575Z,66.91
2019-05-28T21:29:11.936Z,66.28
2019-05-28T21:31:14.011Z,65.96
2019-05-28T21:33:16.135Z,65.54
2019-05-28T21:35:18.432Z,66.09
2019-05-28T21:37:20.554Z,65.23
2019-05-28T21:39:22.807Z,65.30
2019-05-28T21:41:25.343Z,65.62
2019-05-28T21:43:27.042Z,65.68
2019-05-28T21:45:29.383Z,64.93
2019-05-28T21:47:31.774Z,65.40
2019-05-28T21:51:12.241Z,65.48
2019-05-28T21:53:14.702Z,65.27
2019-05-28T21:55:16.379Z,65.43
2019-05-28T21:57:18.519Z,65.63
2019-05-28T21:59:20.851Z,66.21
2019-05-28T22:01:24.515Z,65.57
2019-05-28T22:03:27.057Z,65.61
2019-05-28T22:05:29.148Z,65.25
2019-05-28T22:07:33.032Z,65.51
2019-05-28T22:09:35.162Z,65.59
2019-05-28T22:11:37.426Z,65.89
2019-05-28T22:13:39.494Z,66.10
2019-05-28T22:15:41.548Z,66.26
2019-05-28T22:17:44.119Z,67.36
2019-05-28T22:19:46.206Z,66.69
2019-05-28T22:21:48.328Z,66.77
2019-05-28T22:23:51.020Z,67.57
2019-05-28T22:25:53.068Z,68.30
2019-05-28T22:27:56.447Z,69.07
2019-05-28T22:29:58.746Z,69.32
2019-05-28T22:32:00.915Z,69.67
2019-05-28T22:34:03.271Z,69.99
2019-05-28T22:36:05.554Z,71.07
2019-05-28T22:38:08.837Z,69.82
2019-05-28T22:40:11.464Z,70.03
2019-05-28T22:42:13.785Z,70.51
2019-05-28T22:44:15.967Z,71.39
2019-05-28T22:46:18.163Z,71.65
2019-05-28T22:48:21.083Z,71.37
2019-05-28T22:50:23.594Z,71.78
2019-05-28T22:52:25.735Z,72.21
2019-05-28T22:54:28.097Z,70.66
2019-05-28T22:56:30.243Z,71.63
2019-05-28T22:58:32.381Z,72.09
2019-05-28T23:00:34.581Z,71.67
2019-05-28T23:02:36.689Z,71.29
2019-05-28T23:04:38.824Z,72.20
2019-05-28T23:06:41.282Z,71.55
2019-05-28T23:08:43.878Z,72.04
2019-05-28T23:10:45.931Z,72.79
2019-05-28T23:12:48.174Z,71.93
2019-05-28T23:14:50.624Z,72.14
2019-05-28T23:16:53.689Z,72.21
2019-05-28T23:18:56.011Z,72.33
2019-05-28T23:20:58.189Z,71.98
2019-05-28T23:23:00.987Z,72.93
2019-05-28T23:25:05.323Z,72.67
2019-05-28T23:27:09.623Z,71.83
2019-05-28T23:29:12.066Z,73.22
2019-05-28T23:31:15.493Z,71.38
2019-05-28T23:33:17.796Z,70.93
2019-05-28T23:35:19.819Z,72.19
2019-05-28T23:37:22.365Z,70.18
2019-05-28T23:39:24.135Z,69.99
2019-05-28T23:41:26.117Z,70.94
2019-05-28T23:43:28.441Z,71.35
2019-05-28T23:45:32.313Z,69.89
2019-05-28T23:47:34.345Z,70.64
2019-05-28T23:49:36.669Z,70.97
2019-05-28T23:51:39.386Z,70.56
2019-05-28T23:53:41.658Z,70.82
2019-05-28T23:55:45.210Z,71.42
2019-05-28T23:57:47.304Z,72.06
2019-05-28T23:59:49.383Z,70.22
